sensor_id;sensor_type;location;lat;lon;timestamp;P1;durP1;ratioP1;P2;durP2;ratioP2
46597;SDS011;32318;48.858;8.252;2023-05-29T00:05:55;11.95;;;5.68;;
46597;SDS011;32318;48.858;8.252;2023-05-29T00:13:55;14.85;;;5.43;;
46597;SDS011;32318;48.858;8.252;2023-05-29T00:21:56;12.93;;;5.43;;
46597;SDS011;32318;48.858;8.252;2023-05-29T00:29:56;13.15;;;5.15;;
46597;SDS011;32318;48.858;8.252;2023-05-29T00:37:57;15.63;;;5.60;;
46597;SDS011;32318;48.858;8.252;2023-05-29T00:45:58;10.75;;;5.10;;
46597;SDS011;32318;48.858;8.252;2023-05-29T00:53:58;21.25;;;5.75;;
46597;SDS011;32318;48.858;8.252;2023-05-29T01:01:59;18.27;;;5.35;;
46597;SDS011;32318;48.858;8.252;2023-05-29T01:10:02;14.00;;;5.10;;
46597;SDS011;32318;48.858;8.252;2023-05-29T01:34:44;12.75;;;5.47;;
46597;SDS011;32318;48.858;8.252;2023-05-29T01:42:45;17.45;;;4.95;;
46597;SDS011;32318;48.858;8.252;2023-05-29T01:50:45;18.67;;;6.03;;
46597;SDS011;32318;48.858;8.252;2023-05-29T01:58:47;12.35;;;4.20;;
46597;SDS011;32318;48.858;8.252;2023-05-29T02:06:49;12.27;;;4.63;;
46597;SDS011;32318;48.858;8.252;2023-05-29T02:14:49;15.80;;;4.70;;
46597;SDS011;32318;48.858;8.252;2023-05-29T02:22:50;13.30;;;4.43;;
46597;SDS011;32318;48.858;8.252;2023-05-29T02:30:50;14.90;;;4.93;;
46597;SDS011;32318;48.858;8.252;2023-05-29T02:38:50;13.30;;;4.57;;
46597;SDS011;32318;48.858;8.252;2023-05-29T02:46:51;15.05;;;5.13;;
46597;SDS011;32318;48.858;8.252;2023-05-29T02:54:51;12.93;;;4.47;;
46597;SDS011;32318;48.858;8.252;2023-05-29T03:02:51;11.02;;;3.97;;
46597;SDS011;32318;48.858;8.252;2023-05-29T03:10:52;10.35;;;4.30;;
46597;SDS011;32318;48.858;8.252;2023-05-29T03:18:52;9.05;;;4.32;;
46597;SDS011;32318;48.858;8.252;2023-05-29T03:26:52;15.40;;;4.28;;
46597;SDS011;32318;48.858;8.252;2023-05-29T03:34:53;9.57;;;4.20;;
46597;SDS011;32318;48.858;8.252;2023-05-29T03:42:53;18.10;;;4.35;;
46597;SDS011;32318;48.858;8.252;2023-05-29T03:50:53;12.95;;;4.43;;
46597;SDS011;32318;48.858;8.252;2023-05-29T03:58:54;12.47;;;4.53;;
46597;SDS011;32318;48.858;8.252;2023-05-29T04:06:54;16.48;;;4.57;;
46597;SDS011;32318;48.858;8.252;2023-05-29T04:14:55;23.77;;;4.40;;
46597;SDS011;32318;48.858;8.252;2023-05-29T04:22:55;9.10;;;3.80;;
46597;SDS011;32318;48.858;8.252;2023-05-29T04:30:55;17.38;;;3.92;;
46597;SDS011;32318;48.858;8.252;2023-05-29T04:38:56;9.40;;;3.97;;
46597;SDS011;32318;48.858;8.252;2023-05-29T04:46:57;20.30;;;4.55;;
46597;SDS011;32318;48.858;8.252;2023-05-29T04:54:57;22.17;;;5.10;;
46597;SDS011;32318;48.858;8.252;2023-05-29T05:02:57;13.75;;;4.13;;
46597;SDS011;32318;48.858;8.252;2023-05-29T05:10:58;10.77;;;3.85;;
46597;SDS011;32318;48.858;8.252;2023-05-29T05:18:59;10.57;;;3.78;;
46597;SDS011;32318;48.858;8.252;2023-05-29T05:27:00;10.95;;;4.13;;
46597;SDS011;32318;48.858;8.252;2023-05-29T05:35:00;18.17;;;4.15;;
46597;SDS011;32318;48.858;8.252;2023-05-29T05:43:01;12.77;;;4.27;;
46597;SDS011;32318;48.858;8.252;2023-05-29T05:51:01;18.80;;;4.35;;
46597;SDS011;32318;48.858;8.252;2023-05-29T05:59:01;12.00;;;3.85;;
46597;SDS011;32318;48.858;8.252;2023-05-29T06:07:02;13.73;;;3.80;;
46597;SDS011;32318;48.858;8.252;2023-05-29T06:15:02;10.63;;;3.60;;
46597;SDS011;32318;48.858;8.252;2023-05-29T06:23:04;7.55;;;3.50;;
46597;SDS011;32318;48.858;8.252;2023-05-29T06:31:04;11.05;;;3.80;;
46597;SDS011;32318;48.858;8.252;2023-05-29T06:39:04;15.98;;;4.30;;
46597;SDS011;32318;48.858;8.252;2023-05-29T06:47:05;10.93;;;3.65;;
46597;SDS011;32318;48.858;8.252;2023-05-29T06:55:05;10.38;;;3.55;;
46597;SDS011;32318;48.858;8.252;2023-05-29T07:03:06;12.50;;;3.10;;
46597;SDS011;32318;48.858;8.252;2023-05-29T07:11:06;7.03;;;3.70;;
46597;SDS011;32318;48.858;8.252;2023-05-29T07:19:07;11.68;;;3.38;;
46597;SDS011;32318;48.858;8.252;2023-05-29T07:27:07;8.68;;;3.67;;
46597;SDS011;32318;48.858;8.252;2023-05-29T07:35:07;13.07;;;3.33;;
46597;SDS011;32318;48.858;8.252;2023-05-29T07:43:10;11.90;;;3.38;;
46597;SDS011;32318;48.858;8.252;2023-05-29T07:51:11;9.25;;;3.20;;
46597;SDS011;32318;48.858;8.252;2023-05-29T07:59:11;12.85;;;4.53;;
46597;SDS011;32318;48.858;8.252;2023-05-29T08:07:11;12.00;;;3.10;;
46597;SDS011;32318;48.858;8.252;2023-05-29T08:15:12;10.52;;;3.13;;
46597;SDS011;32318;48.858;8.252;2023-05-29T08:23:13;11.00;;;4.00;;
46597;SDS011;32318;48.858;8.252;2023-05-29T08:31:13;9.10;;;3.72;;
46597;SDS011;32318;48.858;8.252;2023-05-29T08:39:13;7.97;;;3.42;;
46597;SDS011;32318;48.858;8.252;2023-05-29T08:47:14;7.10;;;2.97;;
46597;SDS011;32318;48.858;8.252;2023-05-29T08:55:20;8.82;;;3.40;;
46597;SDS011;32318;48.858;8.252;2023-05-29T09:03:20;8.52;;;3.30;;
46597;SDS011;32318;48.858;8.252;2023-05-29T09:11:22;9.35;;;3.15;;
46597;SDS011;32318;48.858;8.252;2023-05-29T09:19:22;8.18;;;3.15;;
46597;SDS011;32318;48.858;8.252;2023-05-29T09:27:22;10.18;;;4.07;;
46597;SDS011;32318;48.858;8.252;2023-05-29T09:35:25;16.17;;;4.43;;
46597;SDS011;32318;48.858;8.252;2023-05-29T09:43:25;9.10;;;3.30;;
46597;SDS011;32318;48.858;8.252;2023-05-29T09:51:25;8.98;;;3.38;;
46597;SDS011;32318;48.858;8.252;2023-05-29T09:59:25;12.35;;;3.70;;
46597;SDS011;32318;48.858;8.252;2023-05-29T10:07:28;8.60;;;3.28;;
46597;SDS011;32318;48.858;8.252;2023-05-29T10:15:32;12.73;;;3.92;;
46597;SDS011;32318;48.858;8.252;2023-05-29T10:23:33;16.50;;;4.03;;
46597;SDS011;32318;48.858;8.252;2023-05-29T10:31:43;12.52;;;3.85;;
46597;SDS011;32318;48.858;8.252;2023-05-29T10:40:05;12.50;;;3.83;;
46597;SDS011;32318;48.858;8.252;2023-05-29T10:56:20;10.65;;;3.88;;
46597;SDS011;32318;48.858;8.252;2023-05-29T11:12:26;12.40;;;3.35;;
46597;SDS011;32318;48.858;8.252;2023-05-29T11:20:37;12.88;;;4.05;;
46597;SDS011;32318;48.858;8.252;2023-05-29T11:28:43;14.80;;;3.60;;
46597;SDS011;32318;48.858;8.252;2023-05-29T11:36:44;7.95;;;3.72;;
46597;SDS011;32318;48.858;8.252;2023-05-29T11:44:44;9.48;;;3.40;;
46597;SDS011;32318;48.858;8.252;2023-05-29T11:52:45;8.35;;;3.33;;
46597;SDS011;32318;48.858;8.252;2023-05-29T12:00:47;9.27;;;3.17;;
46597;SDS011;32318;48.858;8.252;2023-05-29T12:08:50;14.10;;;3.33;;
46597;SDS011;32318;48.858;8.252;2023-05-29T12:16:51;11.35;;;3.22;;
46597;SDS011;32318;48.858;8.252;2023-05-29T12:24:51;9.67;;;3.13;;
46597;SDS011;32318;48.858;8.252;2023-05-29T12:32:52;6.95;;;2.85;;
46597;SDS011;32318;48.858;8.252;2023-05-29T12:40:53;8.15;;;2.90;;
46597;SDS011;32318;48.858;8.252;2023-05-29T12:48:54;14.23;;;3.10;;
46597;SDS011;32318;48.858;8.252;2023-05-29T12:56:55;10.90;;;3.13;;
46597;SDS011;32318;48.858;8.252;2023-05-29T13:04:56;8.40;;;2.85;;
46597;SDS011;32318;48.858;8.252;2023-05-29T13:12:56;11.38;;;3.22;;
46597;SDS011;32318;48.858;8.252;2023-05-29T13:20:59;6.72;;;3.10;;
46597;SDS011;32318;48.858;8.252;2023-05-29T13:28:59;14.10;;;3.00;;
46597;SDS011;32318;48.858;8.252;2023-05-29T13:37:00;6.15;;;3.30;;
46597;SDS011;32318;48.858;8.252;2023-05-29T13:45:01;9.77;;;3.03;;
46597;SDS011;32318;48.858;8.252;2023-05-29T13:53:01;7.53;;;3.35;;
46597;SDS011;32318;48.858;8.252;2023-05-29T14:01:02;7.35;;;3.08;;
46597;SDS011;32318;48.858;8.252;2023-05-29T14:09:02;13.18;;;5.75;;
46597;SDS011;32318;48.858;8.252;2023-05-29T14:17:03;7.57;;;3.10;;
46597;SDS011;32318;48.858;8.252;2023-05-29T14:25:05;9.48;;;2.67;;
46597;SDS011;32318;48.858;8.252;2023-05-29T14:33:05;5.17;;;2.60;;
46597;SDS011;32318;48.858;8.252;2023-05-29T14:41:05;5.88;;;2.45;;
46597;SDS011;32318;48.858;8.252;2023-05-29T14:49:06;4.75;;;2.45;;
46597;SDS011;32318;48.858;8.252;2023-05-29T14:57:07;8.15;;;2.78;;
46597;SDS011;32318;48.858;8.252;2023-05-29T15:05:07;4.28;;;2.45;;
46597;SDS011;32318;48.858;8.252;2023-05-29T15:13:07;7.37;;;2.80;;
46597;SDS011;32318;48.858;8.252;2023-05-29T15:21:08;5.45;;;2.58;;
46597;SDS011;32318;48.858;8.252;2023-05-29T15:29:08;7.90;;;2.53;;
46597;SDS011;32318;48.858;8.252;2023-05-29T15:37:08;7.95;;;3.00;;
46597;SDS011;32318;48.858;8.252;2023-05-29T15:45:09;5.38;;;2.50;;
46597;SDS011;32318;48.858;8.252;2023-05-29T15:53:09;6.35;;;2.30;;
46597;SDS011;32318;48.858;8.252;2023-05-29T16:01:10;5.07;;;2.85;;
46597;SDS011;32318;48.858;8.252;2023-05-29T16:09:11;7.30;;;2.60;;
46597;SDS011;32318;48.858;8.252;2023-05-29T16:17:11;9.13;;;2.40;;
46597;SDS011;32318;48.858;8.252;2023-05-29T16:25:12;8.18;;;4.00;;
46597;SDS011;32318;48.858;8.252;2023-05-29T16:33:12;5.25;;;2.25;;
46597;SDS011;32318;48.858;8.252;2023-05-29T16:41:13;7.97;;;2.45;;
46597;SDS011;32318;48.858;8.252;2023-05-29T16:49:13;5.07;;;2.35;;
46597;SDS011;32318;48.858;8.252;2023-05-29T16:57:13;4.78;;;2.45;;
46597;SDS011;32318;48.858;8.252;2023-05-29T17:05:14;6.67;;;2.53;;
46597;SDS011;32318;48.858;8.252;2023-05-29T17:13:15;5.78;;;2.15;;
46597;SDS011;32318;48.858;8.252;2023-05-29T17:21:16;7.40;;;2.30;;
46597;SDS011;32318;48.858;8.252;2023-05-29T17:29:16;6.93;;;2.50;;
46597;SDS011;32318;48.858;8.252;2023-05-29T17:37:19;6.43;;;2.75;;
46597;SDS011;32318;48.858;8.252;2023-05-29T17:45:23;5.40;;;2.30;;
46597;SDS011;32318;48.858;8.252;2023-05-29T17:53:24;6.22;;;2.40;;
46597;SDS011;32318;48.858;8.252;2023-05-29T18:01:26;5.55;;;2.60;;
46597;SDS011;32318;48.858;8.252;2023-05-29T18:17:36;5.63;;;2.90;;
46597;SDS011;32318;48.858;8.252;2023-05-29T18:25:36;5.75;;;2.17;;
46597;SDS011;32318;48.858;8.252;2023-05-29T18:33:37;8.77;;;2.57;;
46597;SDS011;32318;48.858;8.252;2023-05-29T18:41:37;17.05;;;3.00;;
46597;SDS011;32318;48.858;8.252;2023-05-29T18:49:40;4.22;;;2.25;;
46597;SDS011;32318;48.858;8.252;2023-05-29T18:57:54;9.32;;;3.35;;
46597;SDS011;32318;48.858;8.252;2023-05-29T19:05:54;8.63;;;2.90;;
46597;SDS011;32318;48.858;8.252;2023-05-29T19:13:57;6.20;;;2.70;;
46597;SDS011;32318;48.858;8.252;2023-05-29T19:22:06;8.00;;;2.85;;
46597;SDS011;32318;48.858;8.252;2023-05-29T19:30:06;6.05;;;2.90;;
46597;SDS011;32318;48.858;8.252;2023-05-29T19:38:07;13.07;;;2.72;;
46597;SDS011;32318;48.858;8.252;2023-05-29T19:46:09;11.85;;;2.88;;
46597;SDS011;32318;48.858;8.252;2023-05-29T19:54:09;8.27;;;3.20;;
46597;SDS011;32318;48.858;8.252;2023-05-29T20:02:10;8.43;;;3.05;;
46597;SDS011;32318;48.858;8.252;2023-05-29T20:10:11;8.32;;;3.30;;
46597;SDS011;32318;48.858;8.252;2023-05-29T20:18:12;8.45;;;3.50;;
46597;SDS011;32318;48.858;8.252;2023-05-29T20:35:09;13.57;;;3.50;;
46597;SDS011;32318;48.858;8.252;2023-05-29T20:43:10;12.37;;;4.03;;
46597;SDS011;32318;48.858;8.252;2023-05-29T20:51:11;9.07;;;4.07;;
46597;SDS011;32318;48.858;8.252;2023-05-29T20:59:12;8.15;;;3.60;;
46597;SDS011;32318;48.858;8.252;2023-05-29T21:07:13;9.40;;;4.20;;
46597;SDS011;32318;48.858;8.252;2023-05-29T21:15:16;9.80;;;3.17;;
46597;SDS011;32318;48.858;8.252;2023-05-29T21:23:18;10.68;;;3.90;;
46597;SDS011;32318;48.858;8.252;2023-05-29T21:31:18;11.75;;;3.63;;
46597;SDS011;32318;48.858;8.252;2023-05-29T21:39:18;9.23;;;3.50;;
46597;SDS011;32318;48.858;8.252;2023-05-29T21:47:18;8.73;;;3.70;;
46597;SDS011;32318;48.858;8.252;2023-05-29T21:55:19;10.30;;;3.97;;
46597;SDS011;32318;48.858;8.252;2023-05-29T22:03:20;12.13;;;3.67;;
46597;SDS011;32318;48.858;8.252;2023-05-29T22:11:20;11.40;;;3.50;;
46597;SDS011;32318;48.858;8.252;2023-05-29T22:19:22;11.95;;;3.50;;
46597;SDS011;32318;48.858;8.252;2023-05-29T22:27:22;12.37;;;4.47;;
46597;SDS011;32318;48.858;8.252;2023-05-29T22:35:23;13.98;;;4.20;;
46597;SDS011;32318;48.858;8.252;2023-05-29T22:43:24;14.37;;;3.70;;
46597;SDS011;32318;48.858;8.252;2023-05-29T22:51:24;8.52;;;3.50;;
46597;SDS011;32318;48.858;8.252;2023-05-29T22:59:25;14.70;;;4.22;;
46597;SDS011;32318;48.858;8.252;2023-05-29T23:07:27;8.02;;;3.13;;
46597;SDS011;32318;48.858;8.252;2023-05-29T23:15:27;8.48;;;3.53;;
46597;SDS011;32318;48.858;8.252;2023-05-29T23:23:27;13.02;;;4.13;;
46597;SDS011;32318;48.858;8.252;2023-05-29T23:31:27;8.75;;;3.50;;
46597;SDS011;32318;48.858;8.252;2023-05-29T23:39:28;11.05;;;4.22;;
46597;SDS011;32318;48.858;8.252;2023-05-29T23:47:28;15.15;;;4.28;;
46597;SDS011;32318;48.858;8.252;2023-05-29T23:55:28;9.98;;;3.70;;
